sensor_id;sensor_type;location;lat;lon;timestamp;P1;durP1;ratioP1;P2;durP2;ratioP2
7432;SDS011;32233;49.500;7.764;2022-09-03T00:02:37;1.03;;;0.80;;
7432;SDS011;32233;49.500;7.764;2022-09-03T00:10:07;2.53;;;1.07;;
7432;SDS011;32233;49.500;7.764;2022-09-03T00:12:36;2.20;;;1.00;;
7432;SDS011;32233;49.500;7.764;2022-09-03T00:15:12;1.00;;;0.90;;
7432;SDS011;32233;49.500;7.764;2022-09-03T00:17:44;1.57;;;0.97;;
7432;SDS011;32233;49.500;7.764;2022-09-03T00:20:21;3.63;;;1.00;;
7432;SDS011;32233;49.500;7.764;2022-09-03T00:22:50;0.97;;;0.90;;
7432;SDS011;32233;49.500;7.764;2022-09-03T00:25:40;1.70;;;1.17;;
7432;SDS011;32233;49.500;7.764;2022-09-03T00:28:12;1.67;;;1.10;;
7432;SDS011;32233;49.500;7.764;2022-09-03T00:30:40;1.50;;;0.93;;
7432;SDS011;32233;49.500;7.764;2022-09-03T00:33:08;1.73;;;1.17;;
7432;SDS011;32233;49.500;7.764;2022-09-03T00:35:44;1.83;;;1.10;;
7432;SDS011;32233;49.500;7.764;2022-09-03T00:38:12;3.23;;;1.00;;
7432;SDS011;32233;49.500;7.764;2022-09-03T00:51:25;1.00;;;0.90;;
7432;SDS011;32233;49.500;7.764;2022-09-03T00:56:37;2.73;;;1.10;;
7432;SDS011;32233;49.500;7.764;2022-09-03T00:59:18;1.90;;;1.00;;
7432;SDS011;32233;49.500;7.764;2022-09-03T01:01:49;1.20;;;1.10;;
7432;SDS011;32233;49.500;7.764;2022-09-03T01:06:57;2.70;;;1.33;;
7432;SDS011;32233;49.500;7.764;2022-09-03T01:11:59;2.27;;;1.10;;
7432;SDS011;32233;49.500;7.764;2022-09-03T01:17:00;2.50;;;1.10;;
7432;SDS011;32233;49.500;7.764;2022-09-03T01:30:11;1.57;;;1.00;;
7432;SDS011;32233;49.500;7.764;2022-09-03T01:32:48;1.77;;;1.10;;
7432;SDS011;32233;49.500;7.764;2022-09-03T01:50:50;1.20;;;1.10;;
7432;SDS011;32233;49.500;7.764;2022-09-03T01:56:47;1.83;;;1.10;;
7432;SDS011;32233;49.500;7.764;2022-09-03T01:59:29;2.97;;;1.10;;
7432;SDS011;32233;49.500;7.764;2022-09-03T02:04:25;0.97;;;0.90;;
7432;SDS011;32233;49.500;7.764;2022-09-03T02:06:52;0.97;;;0.90;;
7432;SDS011;32233;49.500;7.764;2022-09-03T02:09:19;1.93;;;1.20;;
7432;SDS011;32233;49.500;7.764;2022-09-03T02:11:49;4.07;;;1.30;;
7432;SDS011;32233;49.500;7.764;2022-09-03T02:14:17;1.33;;;1.23;;
7432;SDS011;32233;49.500;7.764;2022-09-03T02:16:44;1.13;;;0.93;;
7432;SDS011;32233;49.500;7.764;2022-09-03T02:19:12;4.43;;;1.20;;
7432;SDS011;32233;49.500;7.764;2022-09-03T02:21:46;1.10;;;1.10;;
7432;SDS011;32233;49.500;7.764;2022-09-03T02:24:15;2.07;;;1.20;;
7432;SDS011;32233;49.500;7.764;2022-09-03T02:26:41;2.47;;;1.43;;
7432;SDS011;32233;49.500;7.764;2022-09-03T02:29:08;1.47;;;1.30;;
7432;SDS011;32233;49.500;7.764;2022-09-03T02:31:34;1.87;;;1.60;;
7432;SDS011;32233;49.500;7.764;2022-09-03T02:34:01;1.40;;;1.30;;
7432;SDS011;32233;49.500;7.764;2022-09-03T02:36:29;1.20;;;1.10;;
7432;SDS011;32233;49.500;7.764;2022-09-03T02:38:57;1.20;;;1.10;;
7432;SDS011;32233;49.500;7.764;2022-09-03T02:41:23;1.87;;;1.00;;
7432;SDS011;32233;49.500;7.764;2022-09-03T02:46:45;1.10;;;1.00;;
7432;SDS011;32233;49.500;7.764;2022-09-03T02:49:12;1.13;;;1.03;;
7432;SDS011;32233;49.500;7.764;2022-09-03T02:51:39;2.30;;;0.97;;
7432;SDS011;32233;49.500;7.764;2022-09-03T02:54:07;1.40;;;1.30;;
7432;SDS011;32233;49.500;7.764;2022-09-03T02:56:34;1.17;;;1.10;;
7432;SDS011;32233;49.500;7.764;2022-09-03T02:59:01;1.63;;;0.97;;
7432;SDS011;32233;49.500;7.764;2022-09-03T03:01:27;1.33;;;1.20;;
7432;SDS011;32233;49.500;7.764;2022-09-03T03:03:57;1.67;;;1.20;;
7432;SDS011;32233;49.500;7.764;2022-09-03T03:06:24;1.03;;;1.03;;
7432;SDS011;32233;49.500;7.764;2022-09-03T03:08:51;1.83;;;1.17;;
7432;SDS011;32233;49.500;7.764;2022-09-03T03:11:17;1.30;;;1.20;;
7432;SDS011;32233;49.500;7.764;2022-09-03T03:13:45;1.50;;;1.40;;
7432;SDS011;32233;49.500;7.764;2022-09-03T03:16:12;1.50;;;1.40;;
7432;SDS011;32233;49.500;7.764;2022-09-03T03:18:39;1.10;;;1.10;;
7432;SDS011;32233;49.500;7.764;2022-09-03T03:21:07;3.23;;;1.27;;
7432;SDS011;32233;49.500;7.764;2022-09-03T03:23:34;3.03;;;1.20;;
7432;SDS011;32233;49.500;7.764;2022-09-03T03:26:01;1.20;;;1.10;;
7432;SDS011;32233;49.500;7.764;2022-09-03T03:28:28;1.80;;;1.10;;
7432;SDS011;32233;49.500;7.764;2022-09-03T03:30:57;1.33;;;1.13;;
7432;SDS011;32233;49.500;7.764;2022-09-03T03:33:24;2.30;;;1.00;;
7432;SDS011;32233;49.500;7.764;2022-09-03T03:35:50;1.60;;;1.20;;
7432;SDS011;32233;49.500;7.764;2022-09-03T03:38:17;2.03;;;1.43;;
7432;SDS011;32233;49.500;7.764;2022-09-03T03:40:43;1.63;;;1.20;;
7432;SDS011;32233;49.500;7.764;2022-09-03T03:43:09;2.13;;;1.30;;
7432;SDS011;32233;49.500;7.764;2022-09-03T03:45:36;1.50;;;1.40;;
7432;SDS011;32233;49.500;7.764;2022-09-03T03:48:02;1.80;;;1.67;;
7432;SDS011;32233;49.500;7.764;2022-09-03T03:50:29;2.30;;;1.40;;
7432;SDS011;32233;49.500;7.764;2022-09-03T03:52:58;1.87;;;1.60;;
7432;SDS011;32233;49.500;7.764;2022-09-03T03:55:25;2.40;;;1.27;;
7432;SDS011;32233;49.500;7.764;2022-09-03T03:57:52;1.40;;;1.30;;
7432;SDS011;32233;49.500;7.764;2022-09-03T04:00:18;2.40;;;1.40;;
7432;SDS011;32233;49.500;7.764;2022-09-03T04:02:45;1.70;;;1.60;;
7432;SDS011;32233;49.500;7.764;2022-09-03T04:05:12;1.77;;;1.60;;
7432;SDS011;32233;49.500;7.764;2022-09-03T04:07:38;2.00;;;1.37;;
7432;SDS011;32233;49.500;7.764;2022-09-03T04:10:05;2.10;;;1.73;;
7432;SDS011;32233;49.500;7.764;2022-09-03T04:12:32;2.87;;;1.60;;
7432;SDS011;32233;49.500;7.764;2022-09-03T04:14:58;1.60;;;1.30;;
7432;SDS011;32233;49.500;7.764;2022-09-03T04:17:24;2.67;;;1.20;;
7432;SDS011;32233;49.500;7.764;2022-09-03T04:19:51;1.67;;;1.40;;
7432;SDS011;32233;49.500;7.764;2022-09-03T04:22:17;1.73;;;1.43;;
7432;SDS011;32233;49.500;7.764;2022-09-03T04:24:45;1.90;;;1.20;;
7432;SDS011;32233;49.500;7.764;2022-09-03T04:27:12;4.70;;;1.77;;
7432;SDS011;32233;49.500;7.764;2022-09-03T04:29:38;5.27;;;2.03;;
7432;SDS011;32233;49.500;7.764;2022-09-03T04:32:05;2.67;;;1.80;;
7432;SDS011;32233;49.500;7.764;2022-09-03T04:34:50;2.00;;;1.80;;
7432;SDS011;32233;49.500;7.764;2022-09-03T04:37:16;1.77;;;1.67;;
7432;SDS011;32233;49.500;7.764;2022-09-03T04:39:45;2.20;;;2.00;;
7432;SDS011;32233;49.500;7.764;2022-09-03T04:42:11;1.97;;;1.87;;
7432;SDS011;32233;49.500;7.764;2022-09-03T04:44:38;2.20;;;2.10;;
7432;SDS011;32233;49.500;7.764;2022-09-03T04:47:06;2.03;;;1.87;;
7432;SDS011;32233;49.500;7.764;2022-09-03T04:49:32;2.13;;;1.67;;
7432;SDS011;32233;49.500;7.764;2022-09-03T04:52:00;2.10;;;1.97;;
7432;SDS011;32233;49.500;7.764;2022-09-03T04:54:26;3.00;;;2.23;;
7432;SDS011;32233;49.500;7.764;2022-09-03T04:56:55;2.00;;;1.90;;
7432;SDS011;32233;49.500;7.764;2022-09-03T04:59:21;2.77;;;2.00;;
7432;SDS011;32233;49.500;7.764;2022-09-03T05:01:47;2.50;;;2.27;;
7432;SDS011;32233;49.500;7.764;2022-09-03T05:04:14;3.40;;;2.60;;
7432;SDS011;32233;49.500;7.764;2022-09-03T05:06:40;4.77;;;2.80;;
7432;SDS011;32233;49.500;7.764;2022-09-03T05:09:08;5.40;;;3.13;;
7432;SDS011;32233;49.500;7.764;2022-09-03T05:11:34;4.67;;;3.17;;
7432;SDS011;32233;49.500;7.764;2022-09-03T05:14:01;3.53;;;3.23;;
7432;SDS011;32233;49.500;7.764;2022-09-03T05:16:28;4.43;;;3.10;;
7432;SDS011;32233;49.500;7.764;2022-09-03T05:18:56;6.10;;;3.40;;
7432;SDS011;32233;49.500;7.764;2022-09-03T05:21:24;4.57;;;3.27;;
7432;SDS011;32233;49.500;7.764;2022-09-03T05:23:51;5.63;;;3.57;;
7432;SDS011;32233;49.500;7.764;2022-09-03T05:26:19;3.77;;;3.40;;
7432;SDS011;32233;49.500;7.764;2022-09-03T05:28:47;3.60;;;3.30;;
7432;SDS011;32233;49.500;7.764;2022-09-03T05:31:14;5.10;;;3.67;;
7432;SDS011;32233;49.500;7.764;2022-09-03T05:33:42;3.90;;;3.30;;
7432;SDS011;32233;49.500;7.764;2022-09-03T05:36:10;10.23;;;3.90;;
7432;SDS011;32233;49.500;7.764;2022-09-03T05:38:37;5.57;;;3.70;;
7432;SDS011;32233;49.500;7.764;2022-09-03T05:41:05;8.57;;;3.97;;
7432;SDS011;32233;49.500;7.764;2022-09-03T05:43:31;6.87;;;4.27;;
7432;SDS011;32233;49.500;7.764;2022-09-03T05:45:59;7.40;;;4.20;;
7432;SDS011;32233;49.500;7.764;2022-09-03T05:48:26;6.30;;;4.23;;
7432;SDS011;32233;49.500;7.764;2022-09-03T05:50:59;4.83;;;4.37;;
7432;SDS011;32233;49.500;7.764;2022-09-03T05:53:27;5.00;;;3.77;;
7432;SDS011;32233;49.500;7.764;2022-09-03T05:55:54;4.13;;;3.77;;
7432;SDS011;32233;49.500;7.764;2022-09-03T05:58:21;6.37;;;4.20;;
7432;SDS011;32233;49.500;7.764;2022-09-03T06:00:47;4.70;;;3.77;;
7432;SDS011;32233;49.500;7.764;2022-09-03T06:03:14;4.33;;;3.93;;
7432;SDS011;32233;49.500;7.764;2022-09-03T06:05:48;4.07;;;3.77;;
7432;SDS011;32233;49.500;7.764;2022-09-03T06:08:14;6.63;;;4.63;;
7432;SDS011;32233;49.500;7.764;2022-09-03T06:10:41;5.17;;;4.63;;
7432;SDS011;32233;49.500;7.764;2022-09-03T06:13:07;7.23;;;4.73;;
7432;SDS011;32233;49.500;7.764;2022-09-03T06:15:33;8.50;;;5.10;;
7432;SDS011;32233;49.500;7.764;2022-09-03T06:18:00;7.67;;;5.60;;
7432;SDS011;32233;49.500;7.764;2022-09-03T06:20:26;6.70;;;5.60;;
7432;SDS011;32233;49.500;7.764;2022-09-03T06:22:54;5.70;;;4.63;;
7432;SDS011;32233;49.500;7.764;2022-09-03T06:25:20;8.60;;;5.33;;
7432;SDS011;32233;49.500;7.764;2022-09-03T06:27:47;5.87;;;4.27;;
7432;SDS011;32233;49.500;7.764;2022-09-03T06:30:14;6.30;;;4.70;;
7432;SDS011;32233;49.500;7.764;2022-09-03T06:32:42;6.03;;;4.63;;
7432;SDS011;32233;49.500;7.764;2022-09-03T06:35:09;6.33;;;4.97;;
7432;SDS011;32233;49.500;7.764;2022-09-03T06:37:41;6.37;;;4.67;;
7432;SDS011;32233;49.500;7.764;2022-09-03T06:40:08;4.97;;;4.47;;
7432;SDS011;32233;49.500;7.764;2022-09-03T06:42:38;9.17;;;4.80;;
7432;SDS011;32233;49.500;7.764;2022-09-03T06:45:10;6.93;;;4.70;;
7432;SDS011;32233;49.500;7.764;2022-09-03T06:47:37;4.47;;;4.17;;
7432;SDS011;32233;49.500;7.764;2022-09-03T06:50:04;9.10;;;4.70;;
7432;SDS011;32233;49.500;7.764;2022-09-03T06:52:30;6.60;;;4.77;;
7432;SDS011;32233;49.500;7.764;2022-09-03T06:54:56;5.07;;;4.37;;
7432;SDS011;32233;49.500;7.764;2022-09-03T06:57:23;8.73;;;4.67;;
7432;SDS011;32233;49.500;7.764;2022-09-03T06:59:49;5.17;;;4.67;;
7432;SDS011;32233;49.500;7.764;2022-09-03T07:02:16;6.27;;;4.30;;
7432;SDS011;32233;49.500;7.764;2022-09-03T07:04:43;7.43;;;4.93;;
7432;SDS011;32233;49.500;7.764;2022-09-03T07:07:13;6.60;;;4.20;;
7432;SDS011;32233;49.500;7.764;2022-09-03T07:09:41;5.03;;;4.60;;
7432;SDS011;32233;49.500;7.764;2022-09-03T07:12:13;5.27;;;4.47;;
7432;SDS011;32233;49.500;7.764;2022-09-03T07:14:42;5.43;;;4.80;;
7432;SDS011;32233;49.500;7.764;2022-09-03T07:17:08;7.23;;;5.53;;
7432;SDS011;32233;49.500;7.764;2022-09-03T07:19:34;6.53;;;5.33;;
7432;SDS011;32233;49.500;7.764;2022-09-03T07:22:01;4.97;;;4.47;;
7432;SDS011;32233;49.500;7.764;2022-09-03T07:24:27;6.83;;;4.97;;
7432;SDS011;32233;49.500;7.764;2022-09-03T07:26:54;6.27;;;5.67;;
7432;SDS011;32233;49.500;7.764;2022-09-03T07:29:23;6.97;;;6.07;;
7432;SDS011;32233;49.500;7.764;2022-09-03T07:31:49;10.07;;;6.10;;
7432;SDS011;32233;49.500;7.764;2022-09-03T07:34:17;5.67;;;5.07;;
7432;SDS011;32233;49.500;7.764;2022-09-03T07:36:44;5.97;;;5.47;;
7432;SDS011;32233;49.500;7.764;2022-09-03T07:39:14;7.17;;;5.83;;
7432;SDS011;32233;49.500;7.764;2022-09-03T07:41:41;6.20;;;5.57;;
7432;SDS011;32233;49.500;7.764;2022-09-03T07:44:12;5.73;;;5.23;;
7432;SDS011;32233;49.500;7.764;2022-09-03T07:46:40;6.43;;;5.63;;
7432;SDS011;32233;49.500;7.764;2022-09-03T07:49:06;5.77;;;5.27;;
7432;SDS011;32233;49.500;7.764;2022-09-03T07:51:34;7.73;;;5.40;;
7432;SDS011;32233;49.500;7.764;2022-09-03T07:54:02;6.17;;;5.57;;
7432;SDS011;32233;49.500;7.764;2022-09-03T07:56:29;9.30;;;5.37;;
7432;SDS011;32233;49.500;7.764;2022-09-03T07:58:56;6.80;;;6.10;;
7432;SDS011;32233;49.500;7.764;2022-09-03T08:01:24;5.73;;;5.23;;
7432;SDS011;32233;49.500;7.764;2022-09-03T08:03:51;6.40;;;5.03;;
7432;SDS011;32233;49.500;7.764;2022-09-03T08:06:19;5.47;;;5.00;;
7432;SDS011;32233;49.500;7.764;2022-09-03T08:08:46;7.23;;;5.10;;
7432;SDS011;32233;49.500;7.764;2022-09-03T08:11:17;5.43;;;4.93;;
7432;SDS011;32233;49.500;7.764;2022-09-03T08:13:45;5.90;;;5.20;;
7432;SDS011;32233;49.500;7.764;2022-09-03T08:16:12;5.47;;;4.97;;
7432;SDS011;32233;49.500;7.764;2022-09-03T08:18:39;5.73;;;5.23;;
7432;SDS011;32233;49.500;7.764;2022-09-03T08:21:06;6.00;;;5.40;;
7432;SDS011;32233;49.500;7.764;2022-09-03T08:23:36;6.03;;;5.43;;
7432;SDS011;32233;49.500;7.764;2022-09-03T08:26:03;5.70;;;5.20;;
7432;SDS011;32233;49.500;7.764;2022-09-03T08:28:29;8.33;;;5.47;;
7432;SDS011;32233;49.500;7.764;2022-09-03T08:30:58;5.50;;;4.97;;
7432;SDS011;32233;49.500;7.764;2022-09-03T08:33:24;6.83;;;5.30;;
7432;SDS011;32233;49.500;7.764;2022-09-03T08:36:03;5.67;;;5.10;;
7432;SDS011;32233;49.500;7.764;2022-09-03T08:38:30;6.30;;;4.90;;
7432;SDS011;32233;49.500;7.764;2022-09-03T08:41:11;5.57;;;4.90;;
7432;SDS011;32233;49.500;7.764;2022-09-03T08:44:00;6.37;;;4.97;;
7432;SDS011;32233;49.500;7.764;2022-09-03T08:46:49;5.13;;;4.73;;
7432;SDS011;32233;49.500;7.764;2022-09-03T08:49:20;4.63;;;4.07;;
7432;SDS011;32233;49.500;7.764;2022-09-03T08:51:48;4.17;;;3.87;;
7432;SDS011;32233;49.500;7.764;2022-09-03T08:54:15;4.80;;;4.13;;
7432;SDS011;32233;49.500;7.764;2022-09-03T08:56:43;4.50;;;4.10;;
7432;SDS011;32233;49.500;7.764;2022-09-03T08:59:09;4.37;;;3.53;;
7432;SDS011;32233;49.500;7.764;2022-09-03T09:06:58;4.57;;;4.20;;
7432;SDS011;32233;49.500;7.764;2022-09-03T09:09:43;4.40;;;4.10;;
7432;SDS011;32233;49.500;7.764;2022-09-03T09:20:25;4.63;;;4.13;;
7432;SDS011;32233;49.500;7.764;2022-09-03T09:22:56;5.77;;;4.13;;
7432;SDS011;32233;49.500;7.764;2022-09-03T09:25:24;4.27;;;3.90;;
7432;SDS011;32233;49.500;7.764;2022-09-03T09:27:58;4.37;;;3.97;;
7432;SDS011;32233;49.500;7.764;2022-09-03T09:30:25;4.27;;;3.97;;
7432;SDS011;32233;49.500;7.764;2022-09-03T09:32:52;5.37;;;3.80;;
7432;SDS011;32233;49.500;7.764;2022-09-03T09:35:18;4.40;;;4.10;;
7432;SDS011;32233;49.500;7.764;2022-09-03T09:37:51;4.30;;;3.90;;
7432;SDS011;32233;49.500;7.764;2022-09-03T09:40:26;4.10;;;3.80;;
7432;SDS011;32233;49.500;7.764;2022-09-03T09:43:02;3.30;;;3.10;;
7432;SDS011;32233;49.500;7.764;2022-09-03T09:45:29;3.80;;;3.50;;
7432;SDS011;32233;49.500;7.764;2022-09-03T09:47:59;4.03;;;3.63;;
7432;SDS011;32233;49.500;7.764;2022-09-03T09:50:26;3.97;;;3.67;;
7432;SDS011;32233;49.500;7.764;2022-09-03T09:53:02;3.87;;;3.57;;
7432;SDS011;32233;49.500;7.764;2022-09-03T09:55:33;4.07;;;3.47;;
7432;SDS011;32233;49.500;7.764;2022-09-03T09:58:06;3.70;;;3.33;;
7432;SDS011;32233;49.500;7.764;2022-09-03T10:00:39;2.07;;;1.97;;
7432;SDS011;32233;49.500;7.764;2022-09-03T10:03:09;2.30;;;2.10;;
7432;SDS011;32233;49.500;7.764;2022-09-03T10:05:36;2.90;;;2.70;;
7432;SDS011;32233;49.500;7.764;2022-09-03T10:08:05;2.60;;;2.37;;
7432;SDS011;32233;49.500;7.764;2022-09-03T10:10:33;3.00;;;2.70;;
7432;SDS011;32233;49.500;7.764;2022-09-03T10:13:10;2.57;;;2.47;;
7432;SDS011;32233;49.500;7.764;2022-09-03T10:15:41;2.70;;;2.50;;
7432;SDS011;32233;49.500;7.764;2022-09-03T10:26:12;3.27;;;2.97;;
7432;SDS011;32233;49.500;7.764;2022-09-03T10:28:40;2.57;;;2.40;;
7432;SDS011;32233;49.500;7.764;2022-09-03T10:31:24;3.30;;;3.10;;
7432;SDS011;32233;49.500;7.764;2022-09-03T10:34:15;2.40;;;2.30;;
7432;SDS011;32233;49.500;7.764;2022-09-03T10:47:36;3.37;;;2.40;;
7432;SDS011;32233;49.500;7.764;2022-09-03T10:50:16;2.40;;;2.20;;
7432;SDS011;32233;49.500;7.764;2022-09-03T10:53:29;2.10;;;2.00;;
7432;SDS011;32233;49.500;7.764;2022-09-03T11:00:56;2.10;;;1.57;;
7432;SDS011;32233;49.500;7.764;2022-09-03T11:06:01;2.50;;;1.40;;
7432;SDS011;32233;49.500;7.764;2022-09-03T11:08:31;1.13;;;1.10;;
7432;SDS011;32233;49.500;7.764;2022-09-03T11:11:19;1.20;;;1.20;;
7432;SDS011;32233;49.500;7.764;2022-09-03T11:13:50;1.40;;;1.30;;
7432;SDS011;32233;49.500;7.764;2022-09-03T11:16:23;2.73;;;2.47;;
7432;SDS011;32233;49.500;7.764;2022-09-03T11:19:13;4.43;;;1.90;;
7432;SDS011;32233;49.500;7.764;2022-09-03T11:21:41;1.60;;;1.50;;
7432;SDS011;32233;49.500;7.764;2022-09-03T11:24:16;1.00;;;1.00;;
7432;SDS011;32233;49.500;7.764;2022-09-03T11:26:44;1.17;;;1.07;;
7432;SDS011;32233;49.500;7.764;2022-09-03T11:29:14;1.00;;;1.00;;
7432;SDS011;32233;49.500;7.764;2022-09-03T11:32:00;1.10;;;1.00;;
7432;SDS011;32233;49.500;7.764;2022-09-03T11:34:29;1.20;;;1.20;;
7432;SDS011;32233;49.500;7.764;2022-09-03T11:37:31;1.00;;;1.00;;
7432;SDS011;32233;49.500;7.764;2022-09-03T11:39:55;1.20;;;1.10;;
7432;SDS011;32233;49.500;7.764;2022-09-03T11:42:26;1.47;;;1.37;;
7432;SDS011;32233;49.500;7.764;2022-09-03T11:44:58;1.20;;;1.10;;
7432;SDS011;32233;49.500;7.764;2022-09-03T11:47:38;1.17;;;1.07;;
7432;SDS011;32233;49.500;7.764;2022-09-03T11:50:06;1.37;;;1.27;;
7432;SDS011;32233;49.500;7.764;2022-09-03T11:52:33;1.40;;;1.00;;
7432;SDS011;32233;49.500;7.764;2022-09-03T11:55:06;1.70;;;1.00;;
7432;SDS011;32233;49.500;7.764;2022-09-03T11:57:38;1.00;;;1.00;;
7432;SDS011;32233;49.500;7.764;2022-09-03T12:00:07;1.30;;;1.20;;
7432;SDS011;32233;49.500;7.764;2022-09-03T12:02:36;1.30;;;1.20;;
7432;SDS011;32233;49.500;7.764;2022-09-03T12:05:21;1.17;;;1.07;;
7432;SDS011;32233;49.500;7.764;2022-09-03T12:13:04;1.10;;;1.10;;
7432;SDS011;32233;49.500;7.764;2022-09-03T12:18:06;1.30;;;1.20;;
7432;SDS011;32233;49.500;7.764;2022-09-03T12:20:46;1.67;;;1.00;;
7432;SDS011;32233;49.500;7.764;2022-09-03T12:23:13;1.23;;;0.98;;
7432;SDS011;32233;49.500;7.764;2022-09-03T12:25:43;1.20;;;1.20;;
7432;SDS011;32233;49.500;7.764;2022-09-03T12:28:15;2.25;;;1.00;;
7432;SDS011;32233;49.500;7.764;2022-09-03T12:30:42;0.93;;;0.93;;
7432;SDS011;32233;49.500;7.764;2022-09-03T12:33:09;1.37;;;1.27;;
7432;SDS011;32233;49.500;7.764;2022-09-03T12:35:39;1.27;;;1.27;;
7432;SDS011;32233;49.500;7.764;2022-09-03T12:38:26;1.20;;;1.10;;
7432;SDS011;32233;49.500;7.764;2022-09-03T12:40:54;1.53;;;1.00;;
7432;SDS011;32233;49.500;7.764;2022-09-03T12:43:40;1.50;;;1.40;;
7432;SDS011;32233;49.500;7.764;2022-09-03T12:46:15;1.20;;;1.10;;
7432;SDS011;32233;49.500;7.764;2022-09-03T12:48:51;1.27;;;1.17;;
7432;SDS011;32233;49.500;7.764;2022-09-03T12:51:39;1.60;;;1.50;;
7432;SDS011;32233;49.500;7.764;2022-09-03T12:54:19;1.30;;;1.27;;
7432;SDS011;32233;49.500;7.764;2022-09-03T12:56:52;1.67;;;1.20;;
7432;SDS011;32233;49.500;7.764;2022-09-03T12:59:19;1.30;;;1.20;;
7432;SDS011;32233;49.500;7.764;2022-09-03T13:01:50;2.63;;;1.20;;
7432;SDS011;32233;49.500;7.764;2022-09-03T13:04:19;1.20;;;1.10;;
7432;SDS011;32233;49.500;7.764;2022-09-03T13:06:49;1.40;;;1.30;;
7432;SDS011;32233;49.500;7.764;2022-09-03T13:09:21;1.53;;;1.43;;
7432;SDS011;32233;49.500;7.764;2022-09-03T13:11:48;1.20;;;1.10;;
7432;SDS011;32233;49.500;7.764;2022-09-03T13:14:17;1.83;;;1.43;;
7432;SDS011;32233;49.500;7.764;2022-09-03T13:32:10;1.67;;;1.60;;
7432;SDS011;32233;49.500;7.764;2022-09-03T13:34:47;1.15;;;1.10;;
7432;SDS011;32233;49.500;7.764;2022-09-03T13:39:45;2.93;;;2.13;;
7432;SDS011;32233;49.500;7.764;2022-09-03T13:50:09;2.07;;;1.70;;
7432;SDS011;32233;49.500;7.764;2022-09-03T13:55:30;1.57;;;1.47;;
7432;SDS011;32233;49.500;7.764;2022-09-03T13:58:00;2.50;;;2.30;;
7432;SDS011;32233;49.500;7.764;2022-09-03T14:00:30;2.37;;;1.80;;
7432;SDS011;32233;49.500;7.764;2022-09-03T14:03:10;1.97;;;1.80;;
7432;SDS011;32233;49.500;7.764;2022-09-03T14:10:43;2.37;;;2.17;;
7432;SDS011;32233;49.500;7.764;2022-09-03T14:15:49;1.70;;;1.53;;
7432;SDS011;32233;49.500;7.764;2022-09-03T14:21:02;1.60;;;1.50;;
7432;SDS011;32233;49.500;7.764;2022-09-03T14:26:21;1.73;;;1.50;;
7432;SDS011;32233;49.500;7.764;2022-09-03T14:31:41;1.60;;;1.50;;
7432;SDS011;32233;49.500;7.764;2022-09-03T14:47:27;1.73;;;1.60;;
7432;SDS011;32233;49.500;7.764;2022-09-03T14:50:02;3.17;;;2.10;;
7432;SDS011;32233;49.500;7.764;2022-09-03T14:55:28;1.77;;;1.50;;
7432;SDS011;32233;49.500;7.764;2022-09-03T14:58:03;3.07;;;0.97;;
7432;SDS011;32233;49.500;7.764;2022-09-03T15:00:43;2.83;;;1.03;;
7432;SDS011;32233;49.500;7.764;2022-09-03T15:11:17;2.37;;;0.90;;
7432;SDS011;32233;49.500;7.764;2022-09-03T15:13:46;0.80;;;0.80;;
7432;SDS011;32233;49.500;7.764;2022-09-03T15:21:23;1.20;;;1.10;;
7432;SDS011;32233;49.500;7.764;2022-09-03T15:26:29;2.57;;;0.60;;
7432;SDS011;32233;49.500;7.764;2022-09-03T15:29:09;5.03;;;0.90;;
7432;SDS011;32233;49.500;7.764;2022-09-03T15:32:03;0.87;;;0.60;;
7432;SDS011;32233;49.500;7.764;2022-09-03T15:37:27;1.07;;;0.60;;
7432;SDS011;32233;49.500;7.764;2022-09-03T15:40:04;1.20;;;0.60;;
7432;SDS011;32233;49.500;7.764;2022-09-03T15:42:31;1.70;;;0.70;;
7432;SDS011;32233;49.500;7.764;2022-09-03T15:45:03;1.10;;;0.60;;
7432;SDS011;32233;49.500;7.764;2022-09-03T15:50:24;1.83;;;0.43;;
7432;SDS011;32233;49.500;7.764;2022-09-03T15:57:58;1.13;;;0.60;;
7432;SDS011;32233;49.500;7.764;2022-09-03T16:00:40;2.73;;;0.80;;
7432;SDS011;32233;49.500;7.764;2022-09-03T16:03:15;1.47;;;0.63;;
7432;SDS011;32233;49.500;7.764;2022-09-03T16:06:02;1.57;;;0.67;;
7432;SDS011;32233;49.500;7.764;2022-09-03T16:11:06;1.47;;;0.63;;
7432;SDS011;32233;49.500;7.764;2022-09-03T16:16:10;3.03;;;0.60;;
7432;SDS011;32233;49.500;7.764;2022-09-03T16:18:52;0.50;;;0.50;;
7432;SDS011;32233;49.500;7.764;2022-09-03T16:23:53;0.73;;;0.50;;
7432;SDS011;32233;49.500;7.764;2022-09-03T16:26:29;1.07;;;0.60;;
7432;SDS011;32233;49.500;7.764;2022-09-03T16:29:10;0.87;;;0.63;;
7432;SDS011;32233;49.500;7.764;2022-09-03T16:44:24;0.70;;;0.70;;
7432;SDS011;32233;49.500;7.764;2022-09-03T16:47:10;1.10;;;0.60;;
7432;SDS011;32233;49.500;7.764;2022-09-03T16:49:44;2.47;;;0.90;;
7432;SDS011;32233;49.500;7.764;2022-09-03T17:00:00;1.23;;;0.83;;
7432;SDS011;32233;49.500;7.764;2022-09-03T17:18:01;2.27;;;2.07;;
7432;SDS011;32233;49.500;7.764;2022-09-03T17:23:27;1.37;;;1.20;;
7432;SDS011;32233;49.500;7.764;2022-09-03T17:26:03;2.17;;;1.30;;
7432;SDS011;32233;49.500;7.764;2022-09-03T17:36:09;2.20;;;1.50;;
7432;SDS011;32233;49.500;7.764;2022-09-03T17:44:04;1.47;;;1.00;;
7432;SDS011;32233;49.500;7.764;2022-09-03T17:48:58;1.60;;;1.00;;
7432;SDS011;32233;49.500;7.764;2022-09-03T17:53:54;2.00;;;1.03;;
7432;SDS011;32233;49.500;7.764;2022-09-03T17:59:11;1.00;;;0.90;;
7432;SDS011;32233;49.500;7.764;2022-09-03T18:01:46;1.87;;;1.20;;
7432;SDS011;32233;49.500;7.764;2022-09-03T18:04:30;0.90;;;0.90;;
7432;SDS011;32233;49.500;7.764;2022-09-03T18:07:05;1.50;;;1.20;;
7432;SDS011;32233;49.500;7.764;2022-09-03T18:09:41;2.20;;;1.40;;
7432;SDS011;32233;49.500;7.764;2022-09-03T18:15:03;1.87;;;1.57;;
7432;SDS011;32233;49.500;7.764;2022-09-03T18:20:04;1.90;;;1.80;;
7432;SDS011;32233;49.500;7.764;2022-09-03T18:25:46;2.57;;;1.50;;
7432;SDS011;32233;49.500;7.764;2022-09-03T18:28:44;1.87;;;1.70;;
7432;SDS011;32233;49.500;7.764;2022-09-03T18:31:30;7.33;;;3.60;;
7432;SDS011;32233;49.500;7.764;2022-09-03T18:34:15;5.00;;;3.00;;
7432;SDS011;32233;49.500;7.764;2022-09-03T18:39:48;2.57;;;2.17;;
7432;SDS011;32233;49.500;7.764;2022-09-03T18:45:50;2.40;;;2.20;;
7432;SDS011;32233;49.500;7.764;2022-09-03T18:49:09;2.37;;;1.63;;
7432;SDS011;32233;49.500;7.764;2022-09-03T18:52:17;2.53;;;2.23;;
7432;SDS011;32233;49.500;7.764;2022-09-03T19:17:05;1.43;;;1.33;;
7432;SDS011;32233;49.500;7.764;2022-09-03T19:20:01;2.67;;;1.47;;
7432;SDS011;32233;49.500;7.764;2022-09-03T19:22:47;2.73;;;1.23;;
7432;SDS011;32233;49.500;7.764;2022-09-03T19:25:32;1.67;;;1.10;;
7432;SDS011;32233;49.500;7.764;2022-09-03T19:28:23;1.83;;;1.17;;
7432;SDS011;32233;49.500;7.764;2022-09-03T19:31:11;1.40;;;1.30;;
7432;SDS011;32233;49.500;7.764;2022-09-03T19:43:10;2.03;;;1.17;;
7432;SDS011;32233;49.500;7.764;2022-09-03T19:52:03;2.83;;;1.50;;
7432;SDS011;32233;49.500;7.764;2022-09-03T19:54:51;3.17;;;1.67;;
7432;SDS011;32233;49.500;7.764;2022-09-03T19:57:37;1.80;;;1.30;;
7432;SDS011;32233;49.500;7.764;2022-09-03T20:00:23;2.83;;;1.70;;
7432;SDS011;32233;49.500;7.764;2022-09-03T20:03:08;2.23;;;1.60;;
7432;SDS011;32233;49.500;7.764;2022-09-03T20:05:55;1.43;;;1.20;;
7432;SDS011;32233;49.500;7.764;2022-09-03T20:08:40;2.63;;;1.60;;
7432;SDS011;32233;49.500;7.764;2022-09-03T20:11:25;2.03;;;1.60;;
7432;SDS011;32233;49.500;7.764;2022-09-03T20:13:54;2.23;;;1.70;;
7432;SDS011;32233;49.500;7.764;2022-09-03T20:16:51;2.53;;;1.60;;
7432;SDS011;32233;49.500;7.764;2022-09-03T20:19:31;1.93;;;1.40;;
7432;SDS011;32233;49.500;7.764;2022-09-03T20:22:06;1.63;;;1.53;;
7432;SDS011;32233;49.500;7.764;2022-09-03T20:29:46;2.13;;;1.93;;
7432;SDS011;32233;49.500;7.764;2022-09-03T20:35:00;4.67;;;1.80;;
7432;SDS011;32233;49.500;7.764;2022-09-03T20:48:07;2.90;;;2.20;;
7432;SDS011;32233;49.500;7.764;2022-09-03T20:56:05;2.37;;;1.93;;
7432;SDS011;32233;49.500;7.764;2022-09-03T20:58:34;1.83;;;1.73;;
7432;SDS011;32233;49.500;7.764;2022-09-03T21:03:32;3.70;;;2.10;;
7432;SDS011;32233;49.500;7.764;2022-09-03T21:06:12;2.57;;;2.00;;
7432;SDS011;32233;49.500;7.764;2022-09-03T21:11:15;2.30;;;2.00;;
7432;SDS011;32233;49.500;7.764;2022-09-03T21:21:46;2.23;;;2.13;;